sensor_id;sensor_type;location;lat;lon;timestamp;P1;durP1;ratioP1;P2;durP2;ratioP2
76053;SDS011;64752;48.870;9.082;2024-01-27T00:01:14;12.23;;;4.15;;
76053;SDS011;64752;48.870;9.082;2024-01-27T00:03:40;10.55;;;4.18;;
76053;SDS011;64752;48.870;9.082;2024-01-27T00:06:05;9.55;;;4.82;;
76053;SDS011;64752;48.870;9.082;2024-01-27T00:08:30;11.23;;;4.78;;
76053;SDS011;64752;48.870;9.082;2024-01-27T00:10:56;10.35;;;4.63;;
76053;SDS011;64752;48.870;9.082;2024-01-27T00:13:21;10.73;;;5.03;;
76053;SDS011;64752;48.870;9.082;2024-01-27T00:15:47;15.52;;;5.95;;
76053;SDS011;64752;48.870;9.082;2024-01-27T00:18:12;9.93;;;3.58;;
76053;SDS011;64752;48.870;9.082;2024-01-27T00:20:37;11.93;;;4.30;;
76053;SDS011;64752;48.870;9.082;2024-01-27T00:23:03;11.60;;;4.10;;
76053;SDS011;64752;48.870;9.082;2024-01-27T00:25:28;8.13;;;4.13;;
76053;SDS011;64752;48.870;9.082;2024-01-27T00:27:54;10.18;;;4.50;;
76053;SDS011;64752;48.870;9.082;2024-01-27T00:30:19;17.63;;;5.38;;
76053;SDS011;64752;48.870;9.082;2024-01-27T00:32:45;17.40;;;5.57;;
76053;SDS011;64752;48.870;9.082;2024-01-27T00:35:10;10.90;;;4.68;;
76053;SDS011;64752;48.870;9.082;2024-01-27T00:37:39;15.30;;;5.40;;
76053;SDS011;64752;48.870;9.082;2024-01-27T00:40:07;18.13;;;6.18;;
76053;SDS011;64752;48.870;9.082;2024-01-27T00:42:33;18.58;;;5.47;;
76053;SDS011;64752;48.870;9.082;2024-01-27T00:44:59;19.88;;;6.13;;
76053;SDS011;64752;48.870;9.082;2024-01-27T00:47:24;17.00;;;6.22;;
76053;SDS011;64752;48.870;9.082;2024-01-27T00:49:49;21.33;;;5.40;;
76053;SDS011;64752;48.870;9.082;2024-01-27T00:52:15;15.95;;;5.53;;
76053;SDS011;64752;48.870;9.082;2024-01-27T00:54:40;21.73;;;5.65;;
76053;SDS011;64752;48.870;9.082;2024-01-27T00:57:05;13.75;;;4.90;;
76053;SDS011;64752;48.870;9.082;2024-01-27T00:59:31;9.80;;;3.85;;
76053;SDS011;64752;48.870;9.082;2024-01-27T01:01:57;49.67;;;33.67;;
76053;SDS011;64752;48.870;9.082;2024-01-27T01:04:22;7.38;;;3.92;;
76053;SDS011;64752;48.870;9.082;2024-01-27T01:06:47;9.57;;;3.67;;
76053;SDS011;64752;48.870;9.082;2024-01-27T01:09:12;10.57;;;3.72;;
76053;SDS011;64752;48.870;9.082;2024-01-27T01:11:38;13.55;;;4.18;;
76053;SDS011;64752;48.870;9.082;2024-01-27T01:14:04;9.10;;;4.72;;
76053;SDS011;64752;48.870;9.082;2024-01-27T01:16:29;8.88;;;3.67;;
76053;SDS011;64752;48.870;9.082;2024-01-27T01:18:54;15.38;;;4.18;;
76053;SDS011;64752;48.870;9.082;2024-01-27T01:21:20;9.80;;;3.83;;
76053;SDS011;64752;48.870;9.082;2024-01-27T01:23:45;11.77;;;3.42;;
76053;SDS011;64752;48.870;9.082;2024-01-27T01:26:10;8.95;;;4.05;;
76053;SDS011;64752;48.870;9.082;2024-01-27T01:28:36;10.63;;;3.55;;
76053;SDS011;64752;48.870;9.082;2024-01-27T01:31:02;11.27;;;3.63;;
76053;SDS011;64752;48.870;9.082;2024-01-27T01:33:27;9.60;;;3.20;;
76053;SDS011;64752;48.870;9.082;2024-01-27T01:35:53;6.90;;;3.55;;
76053;SDS011;64752;48.870;9.082;2024-01-27T01:38:18;13.23;;;3.83;;
76053;SDS011;64752;48.870;9.082;2024-01-27T01:40:44;10.10;;;4.45;;
76053;SDS011;64752;48.870;9.082;2024-01-27T01:43:09;6.95;;;3.58;;
76053;SDS011;64752;48.870;9.082;2024-01-27T01:45:37;13.20;;;4.03;;
76053;SDS011;64752;48.870;9.082;2024-01-27T01:48:02;11.50;;;3.80;;
76053;SDS011;64752;48.870;9.082;2024-01-27T01:50:27;6.68;;;3.80;;
76053;SDS011;64752;48.870;9.082;2024-01-27T01:52:53;16.10;;;4.28;;
76053;SDS011;64752;48.870;9.082;2024-01-27T01:55:19;11.60;;;3.78;;
76053;SDS011;64752;48.870;9.082;2024-01-27T01:57:44;11.88;;;3.95;;
76053;SDS011;64752;48.870;9.082;2024-01-27T02:00:10;11.20;;;3.95;;
76053;SDS011;64752;48.870;9.082;2024-01-27T02:02:36;13.03;;;4.00;;
76053;SDS011;64752;48.870;9.082;2024-01-27T02:05:02;10.88;;;3.45;;
76053;SDS011;64752;48.870;9.082;2024-01-27T02:07:27;8.80;;;3.15;;
76053;SDS011;64752;48.870;9.082;2024-01-27T02:09:52;12.15;;;3.40;;
76053;SDS011;64752;48.870;9.082;2024-01-27T02:12:18;8.48;;;3.08;;
76053;SDS011;64752;48.870;9.082;2024-01-27T02:14:43;10.20;;;3.25;;
76053;SDS011;64752;48.870;9.082;2024-01-27T02:17:08;15.77;;;4.65;;
76053;SDS011;64752;48.870;9.082;2024-01-27T02:19:34;10.07;;;3.65;;
76053;SDS011;64752;48.870;9.082;2024-01-27T02:21:59;11.48;;;3.45;;
76053;SDS011;64752;48.870;9.082;2024-01-27T02:24:24;10.20;;;3.72;;
76053;SDS011;64752;48.870;9.082;2024-01-27T02:26:50;15.25;;;4.25;;
76053;SDS011;64752;48.870;9.082;2024-01-27T02:29:15;9.90;;;3.90;;
76053;SDS011;64752;48.870;9.082;2024-01-27T02:31:41;9.05;;;4.05;;
76053;SDS011;64752;48.870;9.082;2024-01-27T02:34:06;11.93;;;3.85;;
76053;SDS011;64752;48.870;9.082;2024-01-27T02:36:31;13.23;;;4.25;;
76053;SDS011;64752;48.870;9.082;2024-01-27T02:38:57;16.52;;;4.70;;
76053;SDS011;64752;48.870;9.082;2024-01-27T02:41:22;14.18;;;4.60;;
76053;SDS011;64752;48.870;9.082;2024-01-27T02:43:47;11.23;;;4.40;;
76053;SDS011;64752;48.870;9.082;2024-01-27T02:46:13;12.30;;;4.72;;
76053;SDS011;64752;48.870;9.082;2024-01-27T02:48:40;16.08;;;5.13;;
76053;SDS011;64752;48.870;9.082;2024-01-27T02:51:07;10.60;;;5.43;;
76053;SDS011;64752;48.870;9.082;2024-01-27T02:53:32;13.57;;;4.75;;
76053;SDS011;64752;48.870;9.082;2024-01-27T02:55:58;10.98;;;4.90;;
76053;SDS011;64752;48.870;9.082;2024-01-27T02:58:23;22.75;;;6.65;;
76053;SDS011;64752;48.870;9.082;2024-01-27T03:00:48;14.85;;;6.22;;
76053;SDS011;64752;48.870;9.082;2024-01-27T03:03:14;17.95;;;6.63;;
76053;SDS011;64752;48.870;9.082;2024-01-27T03:05:40;11.77;;;4.72;;
76053;SDS011;64752;48.870;9.082;2024-01-27T03:08:05;13.27;;;4.83;;
76053;SDS011;64752;48.870;9.082;2024-01-27T03:10:31;14.00;;;5.50;;
76053;SDS011;64752;48.870;9.082;2024-01-27T03:12:56;12.75;;;5.57;;
76053;SDS011;64752;48.870;9.082;2024-01-27T03:15:22;15.75;;;5.32;;
76053;SDS011;64752;48.870;9.082;2024-01-27T03:17:48;13.65;;;4.88;;
76053;SDS011;64752;48.870;9.082;2024-01-27T03:20:13;23.70;;;5.30;;
76053;SDS011;64752;48.870;9.082;2024-01-27T03:22:38;11.20;;;4.38;;
76053;SDS011;64752;48.870;9.082;2024-01-27T03:25:05;14.95;;;5.75;;
76053;SDS011;64752;48.870;9.082;2024-01-27T03:27:31;16.92;;;4.80;;
76053;SDS011;64752;48.870;9.082;2024-01-27T03:29:59;19.42;;;5.57;;
76053;SDS011;64752;48.870;9.082;2024-01-27T03:32:26;14.45;;;4.88;;
76053;SDS011;64752;48.870;9.082;2024-01-27T03:34:52;11.50;;;4.85;;
76053;SDS011;64752;48.870;9.082;2024-01-27T03:37:17;12.75;;;4.65;;
76053;SDS011;64752;48.870;9.082;2024-01-27T03:39:42;10.93;;;4.80;;
76053;SDS011;64752;48.870;9.082;2024-01-27T03:42:08;16.60;;;5.60;;
76053;SDS011;64752;48.870;9.082;2024-01-27T03:44:33;14.20;;;5.50;;
76053;SDS011;64752;48.870;9.082;2024-01-27T03:46:58;13.85;;;5.38;;
76053;SDS011;64752;48.870;9.082;2024-01-27T03:49:24;17.40;;;4.60;;
76053;SDS011;64752;48.870;9.082;2024-01-27T03:51:49;18.63;;;4.85;;
76053;SDS011;64752;48.870;9.082;2024-01-27T03:54:14;13.93;;;4.43;;
76053;SDS011;64752;48.870;9.082;2024-01-27T03:56:41;15.73;;;4.70;;
76053;SDS011;64752;48.870;9.082;2024-01-27T03:59:06;12.20;;;4.38;;
76053;SDS011;64752;48.870;9.082;2024-01-27T04:01:34;11.40;;;4.82;;
76053;SDS011;64752;48.870;9.082;2024-01-27T04:04:00;15.18;;;5.22;;
76053;SDS011;64752;48.870;9.082;2024-01-27T04:06:25;18.63;;;5.13;;
76053;SDS011;64752;48.870;9.082;2024-01-27T04:08:50;13.70;;;5.03;;
76053;SDS011;64752;48.870;9.082;2024-01-27T04:11:19;15.15;;;4.80;;
76053;SDS011;64752;48.870;9.082;2024-01-27T04:13:46;11.48;;;4.47;;
76053;SDS011;64752;48.870;9.082;2024-01-27T04:16:11;14.73;;;4.25;;
76053;SDS011;64752;48.870;9.082;2024-01-27T04:18:38;13.10;;;4.50;;
76053;SDS011;64752;48.870;9.082;2024-01-27T04:21:04;10.20;;;4.00;;
76053;SDS011;64752;48.870;9.082;2024-01-27T04:23:29;17.88;;;5.43;;
76053;SDS011;64752;48.870;9.082;2024-01-27T04:25:55;14.32;;;6.20;;
76053;SDS011;64752;48.870;9.082;2024-01-27T04:28:20;13.13;;;5.13;;
76053;SDS011;64752;48.870;9.082;2024-01-27T04:30:46;14.50;;;5.27;;
76053;SDS011;64752;48.870;9.082;2024-01-27T04:33:12;14.60;;;5.13;;
76053;SDS011;64752;48.870;9.082;2024-01-27T04:35:37;18.52;;;5.82;;
76053;SDS011;64752;48.870;9.082;2024-01-27T04:38:03;12.20;;;5.55;;
76053;SDS011;64752;48.870;9.082;2024-01-27T04:40:29;19.75;;;5.35;;
76053;SDS011;64752;48.870;9.082;2024-01-27T04:42:54;13.75;;;5.68;;
76053;SDS011;64752;48.870;9.082;2024-01-27T04:45:20;16.40;;;6.77;;
76053;SDS011;64752;48.870;9.082;2024-01-27T04:47:45;22.88;;;6.57;;
76053;SDS011;64752;48.870;9.082;2024-01-27T04:50:10;19.43;;;6.63;;
76053;SDS011;64752;48.870;9.082;2024-01-27T04:52:36;18.70;;;6.53;;
76053;SDS011;64752;48.870;9.082;2024-01-27T04:55:01;14.97;;;6.53;;
76053;SDS011;64752;48.870;9.082;2024-01-27T04:57:28;15.35;;;7.00;;
76053;SDS011;64752;48.870;9.082;2024-01-27T04:59:53;15.43;;;6.95;;
76053;SDS011;64752;48.870;9.082;2024-01-27T05:02:18;22.33;;;6.90;;
76053;SDS011;64752;48.870;9.082;2024-01-27T05:04:44;16.50;;;6.28;;
76053;SDS011;64752;48.870;9.082;2024-01-27T05:07:09;19.90;;;6.30;;
76053;SDS011;64752;48.870;9.082;2024-01-27T05:09:34;16.52;;;6.68;;
76053;SDS011;64752;48.870;9.082;2024-01-27T05:12:00;17.55;;;7.05;;
76053;SDS011;64752;48.870;9.082;2024-01-27T05:14:26;15.10;;;7.03;;
76053;SDS011;64752;48.870;9.082;2024-01-27T05:16:51;17.67;;;7.43;;
76053;SDS011;64752;48.870;9.082;2024-01-27T05:19:16;16.38;;;7.05;;
76053;SDS011;64752;48.870;9.082;2024-01-27T05:21:43;23.10;;;7.87;;
76053;SDS011;64752;48.870;9.082;2024-01-27T05:24:09;19.83;;;7.60;;
76053;SDS011;64752;48.870;9.082;2024-01-27T05:26:34;24.08;;;8.23;;
76053;SDS011;64752;48.870;9.082;2024-01-27T05:29:00;25.55;;;8.73;;
76053;SDS011;64752;48.870;9.082;2024-01-27T05:31:25;15.27;;;8.13;;
76053;SDS011;64752;48.870;9.082;2024-01-27T05:33:51;19.00;;;7.50;;
76053;SDS011;64752;48.870;9.082;2024-01-27T05:36:17;23.70;;;7.82;;
76053;SDS011;64752;48.870;9.082;2024-01-27T05:38:42;17.65;;;7.70;;
76053;SDS011;64752;48.870;9.082;2024-01-27T05:41:07;23.23;;;8.50;;
76053;SDS011;64752;48.870;9.082;2024-01-27T05:43:33;16.25;;;7.82;;
76053;SDS011;64752;48.870;9.082;2024-01-27T05:45:58;22.02;;;8.15;;
76053;SDS011;64752;48.870;9.082;2024-01-27T05:48:24;20.97;;;8.00;;
76053;SDS011;64752;48.870;9.082;2024-01-27T05:50:59;18.77;;;8.38;;
76053;SDS011;64752;48.870;9.082;2024-01-27T05:53:26;22.67;;;6.93;;
76053;SDS011;64752;48.870;9.082;2024-01-27T05:55:52;20.20;;;8.32;;
76053;SDS011;64752;48.870;9.082;2024-01-27T05:58:18;11.85;;;6.72;;
76053;SDS011;64752;48.870;9.082;2024-01-27T06:00:47;22.23;;;8.18;;
76053;SDS011;64752;48.870;9.082;2024-01-27T06:03:13;20.35;;;7.88;;
76053;SDS011;64752;48.870;9.082;2024-01-27T06:05:38;12.50;;;7.70;;
76053;SDS011;64752;48.870;9.082;2024-01-27T06:08:04;21.60;;;8.02;;
76053;SDS011;64752;48.870;9.082;2024-01-27T06:10:30;24.40;;;7.47;;
76053;SDS011;64752;48.870;9.082;2024-01-27T06:12:56;19.70;;;8.00;;
76053;SDS011;64752;48.870;9.082;2024-01-27T06:15:22;16.60;;;7.15;;
76053;SDS011;64752;48.870;9.082;2024-01-27T06:17:47;17.45;;;8.02;;
76053;SDS011;64752;48.870;9.082;2024-01-27T06:20:13;19.27;;;8.60;;
76053;SDS011;64752;48.870;9.082;2024-01-27T06:22:38;12.40;;;7.33;;
76053;SDS011;64752;48.870;9.082;2024-01-27T06:25:04;17.57;;;7.90;;
76053;SDS011;64752;48.870;9.082;2024-01-27T06:27:29;21.90;;;8.27;;
76053;SDS011;64752;48.870;9.082;2024-01-27T06:29:55;16.67;;;7.53;;
76053;SDS011;64752;48.870;9.082;2024-01-27T06:32:20;21.42;;;8.27;;
76053;SDS011;64752;48.870;9.082;2024-01-27T06:34:46;17.98;;;8.98;;
76053;SDS011;64752;48.870;9.082;2024-01-27T06:37:11;19.98;;;8.85;;
76053;SDS011;64752;48.870;9.082;2024-01-27T06:39:36;22.33;;;9.32;;
76053;SDS011;64752;48.870;9.082;2024-01-27T06:42:02;19.85;;;9.13;;
76053;SDS011;64752;48.870;9.082;2024-01-27T06:44:27;22.10;;;9.63;;
76053;SDS011;64752;48.870;9.082;2024-01-27T06:46:52;21.23;;;9.10;;
76053;SDS011;64752;48.870;9.082;2024-01-27T06:49:18;20.87;;;9.30;;
76053;SDS011;64752;48.870;9.082;2024-01-27T06:51:43;26.30;;;9.63;;
76053;SDS011;64752;48.870;9.082;2024-01-27T06:54:09;20.90;;;9.10;;
76053;SDS011;64752;48.870;9.082;2024-01-27T06:56:34;23.23;;;9.38;;
76053;SDS011;64752;48.870;9.082;2024-01-27T06:59:00;20.07;;;8.80;;
76053;SDS011;64752;48.870;9.082;2024-01-27T07:01:25;24.67;;;10.48;;
76053;SDS011;64752;48.870;9.082;2024-01-27T07:03:50;22.53;;;9.67;;
76053;SDS011;64752;48.870;9.082;2024-01-27T07:06:16;18.02;;;9.65;;
76053;SDS011;64752;48.870;9.082;2024-01-27T07:08:41;20.97;;;8.53;;
76053;SDS011;64752;48.870;9.082;2024-01-27T07:11:06;24.70;;;9.90;;
76053;SDS011;64752;48.870;9.082;2024-01-27T07:13:32;25.13;;;9.73;;
76053;SDS011;64752;48.870;9.082;2024-01-27T07:15:58;15.73;;;9.50;;
76053;SDS011;64752;48.870;9.082;2024-01-27T07:18:23;25.80;;;9.87;;
76053;SDS011;64752;48.870;9.082;2024-01-27T07:20:49;22.05;;;9.60;;
76053;SDS011;64752;48.870;9.082;2024-01-27T07:23:16;18.20;;;9.30;;
76053;SDS011;64752;48.870;9.082;2024-01-27T07:25:41;20.73;;;8.73;;
76053;SDS011;64752;48.870;9.082;2024-01-27T07:28:06;15.63;;;9.50;;
76053;SDS011;64752;48.870;9.082;2024-01-27T07:30:32;22.13;;;9.07;;
76053;SDS011;64752;48.870;9.082;2024-01-27T07:32:57;21.10;;;8.48;;
76053;SDS011;64752;48.870;9.082;2024-01-27T07:35:22;17.65;;;9.15;;
76053;SDS011;64752;48.870;9.082;2024-01-27T07:37:48;21.27;;;9.18;;
76053;SDS011;64752;48.870;9.082;2024-01-27T07:40:13;19.92;;;8.95;;
76053;SDS011;64752;48.870;9.082;2024-01-27T07:42:38;18.77;;;9.18;;
76053;SDS011;64752;48.870;9.082;2024-01-27T07:45:04;25.15;;;9.80;;
76053;SDS011;64752;48.870;9.082;2024-01-27T07:47:30;18.55;;;8.90;;
76053;SDS011;64752;48.870;9.082;2024-01-27T07:49:55;17.58;;;8.77;;
76053;SDS011;64752;48.870;9.082;2024-01-27T07:52:21;20.27;;;9.27;;
76053;SDS011;64752;48.870;9.082;2024-01-27T07:54:46;17.95;;;10.20;;
76053;SDS011;64752;48.870;9.082;2024-01-27T07:57:12;17.42;;;9.50;;
76053;SDS011;64752;48.870;9.082;2024-01-27T07:59:37;22.35;;;9.50;;
76053;SDS011;64752;48.870;9.082;2024-01-27T08:02:03;17.90;;;9.27;;
76053;SDS011;64752;48.870;9.082;2024-01-27T08:04:29;17.67;;;8.90;;
76053;SDS011;64752;48.870;9.082;2024-01-27T08:06:54;24.35;;;10.13;;
76053;SDS011;64752;48.870;9.082;2024-01-27T08:09:19;19.13;;;9.02;;
76053;SDS011;64752;48.870;9.082;2024-01-27T08:11:45;20.83;;;10.57;;
76053;SDS011;64752;48.870;9.082;2024-01-27T08:14:18;17.70;;;8.45;;
76053;SDS011;64752;48.870;9.082;2024-01-27T08:16:44;19.75;;;9.43;;
76053;SDS011;64752;48.870;9.082;2024-01-27T08:19:10;22.58;;;10.05;;
76053;SDS011;64752;48.870;9.082;2024-01-27T08:21:35;17.92;;;8.43;;
76053;SDS011;64752;48.870;9.082;2024-01-27T08:24:00;17.65;;;8.57;;
76053;SDS011;64752;48.870;9.082;2024-01-27T08:26:26;37.50;;;20.50;;
76053;SDS011;64752;48.870;9.082;2024-01-27T08:28:51;26.90;;;12.47;;
76053;SDS011;64752;48.870;9.082;2024-01-27T08:31:16;21.67;;;8.63;;
76053;SDS011;64752;48.870;9.082;2024-01-27T08:33:42;16.10;;;8.68;;
76053;SDS011;64752;48.870;9.082;2024-01-27T08:36:07;14.95;;;8.40;;
76053;SDS011;64752;48.870;9.082;2024-01-27T08:38:32;17.20;;;8.18;;
76053;SDS011;64752;48.870;9.082;2024-01-27T08:40:58;12.63;;;5.68;;
76053;SDS011;64752;48.870;9.082;2024-01-27T08:43:23;10.60;;;3.20;;
76053;SDS011;64752;48.870;9.082;2024-01-27T08:45:49;13.82;;;4.15;;
76053;SDS011;64752;48.870;9.082;2024-01-27T08:48:14;10.45;;;4.07;;
76053;SDS011;64752;48.870;9.082;2024-01-27T08:50:40;7.35;;;3.58;;
76053;SDS011;64752;48.870;9.082;2024-01-27T08:53:05;7.93;;;3.50;;
76053;SDS011;64752;48.870;9.082;2024-01-27T08:55:31;8.88;;;3.55;;
76053;SDS011;64752;48.870;9.082;2024-01-27T08:57:56;5.75;;;2.80;;
76053;SDS011;64752;48.870;9.082;2024-01-27T09:00:22;7.32;;;2.33;;
76053;SDS011;64752;48.870;9.082;2024-01-27T09:02:48;7.57;;;2.83;;
76053;SDS011;64752;48.870;9.082;2024-01-27T09:05:13;5.53;;;2.65;;
76053;SDS011;64752;48.870;9.082;2024-01-27T09:07:39;11.23;;;3.27;;
76053;SDS011;64752;48.870;9.082;2024-01-27T09:10:04;8.77;;;3.40;;
76053;SDS011;64752;48.870;9.082;2024-01-27T09:12:30;11.23;;;3.87;;
76053;SDS011;64752;48.870;9.082;2024-01-27T09:14:56;7.68;;;3.45;;
76053;SDS011;64752;48.870;9.082;2024-01-27T09:17:21;9.20;;;4.13;;
76053;SDS011;64752;48.870;9.082;2024-01-27T09:19:47;8.60;;;3.40;;
76053;SDS011;64752;48.870;9.082;2024-01-27T09:22:12;9.83;;;3.77;;
76053;SDS011;64752;48.870;9.082;2024-01-27T09:24:37;7.33;;;3.67;;
76053;SDS011;64752;48.870;9.082;2024-01-27T09:27:03;8.50;;;3.90;;
76053;SDS011;64752;48.870;9.082;2024-01-27T09:29:29;10.13;;;3.57;;
76053;SDS011;64752;48.870;9.082;2024-01-27T09:31:55;10.37;;;3.20;;
76053;SDS011;64752;48.870;9.082;2024-01-27T09:34:20;8.90;;;3.20;;
76053;SDS011;64752;48.870;9.082;2024-01-27T09:36:45;8.53;;;3.33;;
76053;SDS011;64752;48.870;9.082;2024-01-27T09:39:11;8.20;;;3.10;;
76053;SDS011;64752;48.870;9.082;2024-01-27T09:41:36;6.43;;;3.17;;
76053;SDS011;64752;48.870;9.082;2024-01-27T09:44:03;8.68;;;3.30;;
76053;SDS011;64752;48.870;9.082;2024-01-27T09:46:30;6.43;;;2.95;;
76053;SDS011;64752;48.870;9.082;2024-01-27T09:48:56;10.75;;;3.75;;
76053;SDS011;64752;48.870;9.082;2024-01-27T09:51:21;10.63;;;3.73;;
76053;SDS011;64752;48.870;9.082;2024-01-27T09:53:47;10.60;;;3.15;;
76053;SDS011;64752;48.870;9.082;2024-01-27T09:56:15;14.07;;;3.30;;
76053;SDS011;64752;48.870;9.082;2024-01-27T09:58:43;7.20;;;2.92;;
76053;SDS011;64752;48.870;9.082;2024-01-27T10:01:12;8.40;;;3.17;;
76053;SDS011;64752;48.870;9.082;2024-01-27T10:03:40;10.55;;;3.13;;
76053;SDS011;64752;48.870;9.082;2024-01-27T10:06:07;9.45;;;3.05;;
76053;SDS011;64752;48.870;9.082;2024-01-27T10:08:34;10.18;;;2.80;;
76053;SDS011;64752;48.870;9.082;2024-01-27T10:10:59;9.77;;;3.47;;
76053;SDS011;64752;48.870;9.082;2024-01-27T10:13:32;9.68;;;3.00;;
76053;SDS011;64752;48.870;9.082;2024-01-27T10:16:04;13.77;;;3.43;;
76053;SDS011;64752;48.870;9.082;2024-01-27T10:18:31;7.82;;;3.15;;
76053;SDS011;64752;48.870;9.082;2024-01-27T10:20:57;12.43;;;3.70;;
76053;SDS011;64752;48.870;9.082;2024-01-27T10:23:23;9.23;;;3.33;;
76053;SDS011;64752;48.870;9.082;2024-01-27T10:25:49;8.93;;;3.47;;
76053;SDS011;64752;48.870;9.082;2024-01-27T10:28:15;9.73;;;3.30;;
76053;SDS011;64752;48.870;9.082;2024-01-27T10:30:41;9.57;;;3.27;;
76053;SDS011;64752;48.870;9.082;2024-01-27T10:33:10;8.35;;;3.65;;
76053;SDS011;64752;48.870;9.082;2024-01-27T10:35:37;9.48;;;3.25;;
76053;SDS011;64752;48.870;9.082;2024-01-27T10:38:03;9.17;;;3.63;;
76053;SDS011;64752;48.870;9.082;2024-01-27T10:40:29;9.33;;;3.60;;
76053;SDS011;64752;48.870;9.082;2024-01-27T10:43:27;9.80;;;3.53;;
76053;SDS011;64752;48.870;9.082;2024-01-27T10:45:49;9.27;;;3.15;;
76053;SDS011;64752;48.870;9.082;2024-01-27T10:48:15;9.95;;;3.40;;
76053;SDS011;64752;48.870;9.082;2024-01-27T10:50:41;10.00;;;3.77;;
76053;SDS011;64752;48.870;9.082;2024-01-27T10:53:09;8.63;;;3.90;;
76053;SDS011;64752;48.870;9.082;2024-01-27T10:55:48;14.02;;;4.03;;
76053;SDS011;64752;48.870;9.082;2024-01-27T10:58:18;8.68;;;3.88;;
76053;SDS011;64752;48.870;9.082;2024-01-27T11:00:46;8.18;;;3.28;;
76053;SDS011;64752;48.870;9.082;2024-01-27T11:03:15;10.32;;;3.53;;
76053;SDS011;64752;48.870;9.082;2024-01-27T11:05:43;15.98;;;3.85;;
76053;SDS011;64752;48.870;9.082;2024-01-27T11:08:12;11.32;;;3.42;;
76053;SDS011;64752;48.870;9.082;2024-01-27T11:10:38;8.20;;;3.38;;
76053;SDS011;64752;48.870;9.082;2024-01-27T11:13:11;10.23;;;3.65;;
76053;SDS011;64752;48.870;9.082;2024-01-27T11:15:37;11.02;;;3.47;;
76053;SDS011;64752;48.870;9.082;2024-01-27T11:18:02;14.07;;;3.93;;
76053;SDS011;64752;48.870;9.082;2024-01-27T11:20:32;8.55;;;3.30;;
76053;SDS011;64752;48.870;9.082;2024-01-27T11:23:08;10.20;;;3.50;;
76053;SDS011;64752;48.870;9.082;2024-01-27T11:26:03;8.90;;;3.70;;
76053;SDS011;64752;48.870;9.082;2024-01-27T11:28:29;11.55;;;3.10;;
76053;SDS011;64752;48.870;9.082;2024-01-27T11:30:54;7.93;;;3.33;;
76053;SDS011;64752;48.870;9.082;2024-01-27T11:33:20;10.50;;;3.30;;
76053;SDS011;64752;48.870;9.082;2024-01-27T11:35:45;10.53;;;3.57;;
76053;SDS011;64752;48.870;9.082;2024-01-27T11:38:10;12.67;;;3.77;;
76053;SDS011;64752;48.870;9.082;2024-01-27T11:40:46;11.17;;;3.70;;
76053;SDS011;64752;48.870;9.082;2024-01-27T11:43:11;15.20;;;3.40;;
76053;SDS011;64752;48.870;9.082;2024-01-27T11:45:39;10.32;;;3.42;;
76053;SDS011;64752;48.870;9.082;2024-01-27T11:48:04;12.73;;;3.53;;
76053;SDS011;64752;48.870;9.082;2024-01-27T11:52:56;7.20;;;3.13;;
76053;SDS011;64752;48.870;9.082;2024-01-27T11:55:22;11.93;;;3.47;;
76053;SDS011;64752;48.870;9.082;2024-01-27T11:57:47;11.50;;;3.23;;
76053;SDS011;64752;48.870;9.082;2024-01-27T12:00:13;8.83;;;3.00;;
76053;SDS011;64752;48.870;9.082;2024-01-27T12:02:39;9.97;;;3.10;;
76053;SDS011;64752;48.870;9.082;2024-01-27T12:05:05;12.73;;;3.33;;
76053;SDS011;64752;48.870;9.082;2024-01-27T12:07:31;7.70;;;2.63;;
76053;SDS011;64752;48.870;9.082;2024-01-27T12:09:56;8.37;;;2.90;;
76053;SDS011;64752;48.870;9.082;2024-01-27T12:12:22;8.27;;;3.00;;
76053;SDS011;64752;48.870;9.082;2024-01-27T12:14:47;10.03;;;3.07;;
76053;SDS011;64752;48.870;9.082;2024-01-27T12:17:15;10.05;;;3.30;;
76053;SDS011;64752;48.870;9.082;2024-01-27T12:19:47;9.57;;;3.28;;
76053;SDS011;64752;48.870;9.082;2024-01-27T12:22:21;10.43;;;3.22;;
76053;SDS011;64752;48.870;9.082;2024-01-27T12:24:47;8.15;;;3.20;;
76053;SDS011;64752;48.870;9.082;2024-01-27T12:27:12;15.03;;;3.73;;
76053;SDS011;64752;48.870;9.082;2024-01-27T12:29:37;9.73;;;3.23;;
76053;SDS011;64752;48.870;9.082;2024-01-27T12:32:05;10.38;;;3.42;;
76053;SDS011;64752;48.870;9.082;2024-01-27T12:34:31;8.55;;;2.85;;
76053;SDS011;64752;48.870;9.082;2024-01-27T12:36:57;10.67;;;3.30;;
76053;SDS011;64752;48.870;9.082;2024-01-27T12:39:22;8.67;;;2.40;;
76053;SDS011;64752;48.870;9.082;2024-01-27T12:41:48;11.00;;;2.70;;
76053;SDS011;64752;48.870;9.082;2024-01-27T12:44:13;11.03;;;3.03;;
76053;SDS011;64752;48.870;9.082;2024-01-27T12:46:38;8.03;;;3.07;;
76053;SDS011;64752;48.870;9.082;2024-01-27T12:49:04;8.50;;;2.80;;
76053;SDS011;64752;48.870;9.082;2024-01-27T12:51:29;10.03;;;2.83;;
76053;SDS011;64752;48.870;9.082;2024-01-27T12:53:54;9.13;;;3.10;;
76053;SDS011;64752;48.870;9.082;2024-01-27T12:56:19;8.97;;;2.83;;
76053;SDS011;64752;48.870;9.082;2024-01-27T12:58:45;10.60;;;3.20;;
76053;SDS011;64752;48.870;9.082;2024-01-27T13:01:13;10.35;;;3.33;;
76053;SDS011;64752;48.870;9.082;2024-01-27T13:03:38;6.00;;;2.73;;
76053;SDS011;64752;48.870;9.082;2024-01-27T13:06:04;7.93;;;2.40;;
76053;SDS011;64752;48.870;9.082;2024-01-27T13:08:29;6.93;;;2.80;;
76053;SDS011;64752;48.870;9.082;2024-01-27T13:10:58;6.53;;;2.67;;
76053;SDS011;64752;48.870;9.082;2024-01-27T13:13:24;7.90;;;2.53;;
76053;SDS011;64752;48.870;9.082;2024-01-27T13:15:49;8.90;;;3.07;;
76053;SDS011;64752;48.870;9.082;2024-01-27T13:18:14;9.03;;;2.80;;
76053;SDS011;64752;48.870;9.082;2024-01-27T13:20:40;7.00;;;2.60;;
76053;SDS011;64752;48.870;9.082;2024-01-27T13:23:05;7.33;;;2.80;;
76053;SDS011;64752;48.870;9.082;2024-01-27T13:25:31;8.40;;;2.95;;
76053;SDS011;64752;48.870;9.082;2024-01-27T13:27:57;7.70;;;2.67;;
76053;SDS011;64752;48.870;9.082;2024-01-27T13:30:22;9.23;;;3.17;;
76053;SDS011;64752;48.870;9.082;2024-01-27T13:32:48;11.07;;;3.13;;
76053;SDS011;64752;48.870;9.082;2024-01-27T13:35:14;7.83;;;2.97;;
76053;SDS011;64752;48.870;9.082;2024-01-27T13:37:39;10.57;;;2.90;;
76053;SDS011;64752;48.870;9.082;2024-01-27T13:40:05;4.63;;;2.60;;
76053;SDS011;64752;48.870;9.082;2024-01-27T13:42:32;7.78;;;2.92;;
76053;SDS011;64752;48.870;9.082;2024-01-27T13:44:58;9.23;;;3.20;;
76053;SDS011;64752;48.870;9.082;2024-01-27T13:47:23;7.40;;;2.73;;
76053;SDS011;64752;48.870;9.082;2024-01-27T13:49:49;11.13;;;3.30;;
76053;SDS011;64752;48.870;9.082;2024-01-27T13:52:14;10.50;;;3.93;;
76053;SDS011;64752;48.870;9.082;2024-01-27T13:54:39;8.97;;;2.83;;
76053;SDS011;64752;48.870;9.082;2024-01-27T13:57:08;7.60;;;2.93;;
76053;SDS011;64752;48.870;9.082;2024-01-27T13:59:35;9.25;;;2.70;;
76053;SDS011;64752;48.870;9.082;2024-01-27T14:02:01;8.75;;;2.70;;
76053;SDS011;64752;48.870;9.082;2024-01-27T14:04:26;9.17;;;2.97;;
76053;SDS011;64752;48.870;9.082;2024-01-27T14:06:52;9.77;;;3.17;;
76053;SDS011;64752;48.870;9.082;2024-01-27T14:09:21;10.07;;;3.53;;
76053;SDS011;64752;48.870;9.082;2024-01-27T14:11:49;7.60;;;2.90;;
76053;SDS011;64752;48.870;9.082;2024-01-27T14:14:16;7.00;;;3.00;;
76053;SDS011;64752;48.870;9.082;2024-01-27T14:16:46;11.00;;;3.13;;
76053;SDS011;64752;48.870;9.082;2024-01-27T14:19:14;11.65;;;3.70;;
76053;SDS011;64752;48.870;9.082;2024-01-27T14:21:40;8.90;;;3.22;;
76053;SDS011;64752;48.870;9.082;2024-01-27T14:24:06;10.07;;;3.90;;
76053;SDS011;64752;48.870;9.082;2024-01-27T14:26:33;10.27;;;2.88;;
76053;SDS011;64752;48.870;9.082;2024-01-27T14:28:58;9.75;;;3.72;;
76053;SDS011;64752;48.870;9.082;2024-01-27T14:31:24;9.18;;;2.88;;
76053;SDS011;64752;48.870;9.082;2024-01-27T14:33:49;10.00;;;3.53;;